createdAt,value
2022-09-10T00:00:39.777Z,13.57
2022-09-10T00:01:38.904Z,13.47
2022-09-10T00:02:39.464Z,13.48
2022-09-10T00:03:37.731Z,13.51
2022-09-10T00:04:37.693Z,13.56
2022-09-10T00:06:38.938Z,13.53
2022-09-10T00:07:37.889Z,13.51
2022-09-10T00:08:39.532Z,13.52
2022-09-10T00:09:38.506Z,13.57
2022-09-10T00:10:42.469Z,13.64
2022-09-10T00:11:40.856Z,13.62
2022-09-10T00:12:37.761Z,13.54
2022-09-10T00:13:39.415Z,13.44
2022-09-10T00:14:37.850Z,13.33
2022-09-10T00:15:41.851Z,13.21
2022-09-10T00:16:37.806Z,13.10
2022-09-10T00:17:39.064Z,13.03
2022-09-10T00:18:39.423Z,13.01
2022-09-10T00:19:38.704Z,13.03
2022-09-10T00:20:44.459Z,13.08
2022-09-10T00:21:38.045Z,13.14
2022-09-10T00:22:37.806Z,13.19
2022-09-10T00:23:37.773Z,13.24
2022-09-10T00:24:38.862Z,13.29
2022-09-10T00:25:39.163Z,13.39
2022-09-10T00:26:39.867Z,13.48
2022-09-10T00:27:37.718Z,13.52
2022-09-10T00:28:37.913Z,13.53
2022-09-10T00:29:38.336Z,13.48
2022-09-10T00:31:38.387Z,13.47
2022-09-10T00:32:38.601Z,13.42
2022-09-10T00:33:38.178Z,13.28
2022-09-10T00:34:37.672Z,13.12
2022-09-10T00:35:40.490Z,12.98
2022-09-10T00:36:40.944Z,12.87
2022-09-10T00:37:37.876Z,12.83
2022-09-10T00:38:37.895Z,12.84
2022-09-10T00:39:37.699Z,12.87
2022-09-10T00:40:38.318Z,12.88
2022-09-10T00:41:40.608Z,12.91
2022-09-10T00:42:37.651Z,12.96
2022-09-10T00:43:49.939Z,12.99
2022-09-10T00:44:46.372Z,13.00
2022-09-10T00:45:37.833Z,13.02
2022-09-10T00:46:43.646Z,13.06
2022-09-10T00:47:39.718Z,13.13
2022-09-10T00:48:38.253Z,13.21
2022-09-10T00:49:42.337Z,13.34
2022-09-10T00:50:42.006Z,13.50
2022-09-10T00:51:38.177Z,13.69
2022-09-10T00:52:39.916Z,13.85
2022-09-10T00:53:37.728Z,13.95
2022-09-10T00:54:40.645Z,14.05
2022-09-10T00:55:41.532Z,14.16
2022-09-10T00:56:38.944Z,14.28
2022-09-10T00:57:38.736Z,14.33
2022-09-10T00:58:38.162Z,14.31
2022-09-10T00:59:37.746Z,14.42
2022-09-10T01:00:38.469Z,14.55
2022-09-10T01:01:39.294Z,14.62
2022-09-10T01:02:37.810Z,14.66
2022-09-10T01:03:38.005Z,14.76
2022-09-10T01:04:38.322Z,14.90
2022-09-10T01:05:38.760Z,15.02
2022-09-10T01:06:39.771Z,15.11
2022-09-10T01:07:38.020Z,15.21
2022-09-10T01:08:37.915Z,15.32
2022-09-10T01:09:38.832Z,15.40
2022-09-10T01:10:54.275Z,15.43
2022-09-10T01:11:52.952Z,15.42
2022-09-10T01:12:55.825Z,15.41
2022-09-10T01:13:55.276Z,15.36
2022-09-10T01:14:55.745Z,15.40
2022-09-10T01:15:53.189Z,15.43
2022-09-10T01:16:51.662Z,15.41
2022-09-10T01:18:45.195Z,15.47
2022-09-10T01:19:46.839Z,15.55
2022-09-10T01:20:44.746Z,15.53
2022-09-10T01:21:52.076Z,15.45
2022-09-10T01:22:49.373Z,15.37
2022-09-10T01:23:57.625Z,15.33
2022-09-10T01:24:51.343Z,15.38
2022-09-10T01:25:54.267Z,15.48
2022-09-10T01:26:55.202Z,15.62
2022-09-10T01:27:50.309Z,15.74
2022-09-10T01:28:45.019Z,15.84
2022-09-10T01:29:49.496Z,15.92
2022-09-10T01:30:43.651Z,15.96
2022-09-10T01:31:41.286Z,15.98
2022-09-10T01:32:41.556Z,15.99
2022-09-10T01:33:46.129Z,16.00
2022-09-10T01:34:46.422Z,16.02
2022-09-10T01:35:43.318Z,16.08
2022-09-10T01:36:41.950Z,16.16
2022-09-10T01:37:40.842Z,16.26
2022-09-10T01:38:42.111Z,16.29
2022-09-10T01:39:39.778Z,16.24
2022-09-10T01:40:38.593Z,16.18
2022-09-10T01:41:38.131Z,16.06
2022-09-10T01:42:40.065Z,15.92
2022-09-10T01:43:37.984Z,15.75
2022-09-10T01:44:42.511Z,15.62
2022-09-10T01:45:44.867Z,15.54
2022-09-10T01:46:50.164Z,15.51
2022-09-10T01:47:51.397Z,15.49
2022-09-10T01:48:56.103Z,15.51
2022-09-10T01:49:47.076Z,15.60
2022-09-10T01:50:53.105Z,15.73
2022-09-10T01:51:53.658Z,15.87
2022-09-10T01:52:53.531Z,16.01
2022-09-10T01:53:51.500Z,16.13
2022-09-10T01:54:52.147Z,16.27
2022-09-10T01:55:51.599Z,16.30
2022-09-10T01:56:54.746Z,16.16
2022-09-10T01:57:53.204Z,15.93
2022-09-10T01:58:40.832Z,15.73
2022-09-10T01:59:47.176Z,15.60
2022-09-10T02:00:42.252Z,15.46
2022-09-10T02:01:45.800Z,15.42
2022-09-10T02:03:39.824Z,15.40
2022-09-10T02:04:38.739Z,15.39
2022-09-10T02:06:40.957Z,15.34
2022-09-10T02:07:39.659Z,15.29
2022-09-10T02:08:40.662Z,15.21
2022-09-10T02:09:37.918Z,15.15
2022-09-10T02:10:55.777Z,15.10
2022-09-10T02:11:48.316Z,15.11
2022-09-10T02:12:40.168Z,15.05
2022-09-10T02:13:38.412Z,15.02
2022-09-10T02:14:37.625Z,15.01
2022-09-10T02:15:38.177Z,15.00
2022-09-10T02:16:41.447Z,15.03
2022-09-10T02:17:39.950Z,15.07
2022-09-10T02:18:40.129Z,15.12
2022-09-10T02:19:38.542Z,15.19
2022-09-10T02:20:39.027Z,15.23
2022-09-10T02:21:38.685Z,15.15
2022-09-10T02:22:39.413Z,15.05
2022-09-10T02:23:44.460Z,14.98
2022-09-10T02:24:37.650Z,14.94
2022-09-10T02:25:37.908Z,14.90
2022-09-10T02:26:39.884Z,14.85
2022-09-10T02:27:38.497Z,14.81
2022-09-10T02:29:38.776Z,14.78
2022-09-10T02:30:38.955Z,14.77
2022-09-10T02:32:37.614Z,14.72
2022-09-10T02:33:38.454Z,14.64
2022-09-10T02:34:41.869Z,14.52
2022-09-10T02:35:37.566Z,14.46
2022-09-10T02:36:41.753Z,14.44
2022-09-10T02:38:38.665Z,14.43
2022-09-10T02:39:37.670Z,14.44
2022-09-10T02:40:38.021Z,14.41
2022-09-10T02:41:40.999Z,14.36
2022-09-10T02:42:38.538Z,14.31
2022-09-10T02:43:38.438Z,14.27
2022-09-10T02:44:37.777Z,14.20
2022-09-10T02:45:40.260Z,14.14
2022-09-10T02:46:38.407Z,14.10
2022-09-10T02:47:37.603Z,14.06
2022-09-10T02:49:37.626Z,14.07
2022-09-10T02:50:37.912Z,14.05
2022-09-10T02:51:38.322Z,14.04
2022-09-10T02:52:37.823Z,14.07
2022-09-10T02:53:38.032Z,14.09
2022-09-10T02:54:37.576Z,14.10
2022-09-10T02:55:37.587Z,14.08
2022-09-10T02:57:37.645Z,14.07
2022-09-10T02:59:37.767Z,14.06
2022-09-10T03:01:38.823Z,14.05
2022-09-10T03:03:38.315Z,14.04
2022-09-10T03:04:37.636Z,14.02
2022-09-10T03:05:38.789Z,14.01
2022-09-10T03:06:38.337Z,14.03
2022-09-10T03:07:37.575Z,14.04
2022-09-10T03:08:38.005Z,14.05
2022-09-10T03:09:37.546Z,14.03
2022-09-10T03:10:38.639Z,14.00
2022-09-10T03:11:40.833Z,13.98
2022-09-10T03:12:38.268Z,14.01
2022-09-10T03:13:37.871Z,14.00
2022-09-10T03:14:37.591Z,13.97
2022-09-10T03:15:38.405Z,13.96
2022-09-10T03:17:37.520Z,13.89
2022-09-10T03:18:37.772Z,13.80
2022-09-10T03:19:37.839Z,13.76
2022-09-10T03:20:37.592Z,13.74
2022-09-10T03:21:37.729Z,13.71
2022-09-10T03:22:38.354Z,13.63
2022-09-10T03:23:38.269Z,13.56
2022-09-10T03:24:37.587Z,13.52
2022-09-10T03:25:37.560Z,13.50
2022-09-10T03:26:37.737Z,13.49
2022-09-10T03:27:38.488Z,13.47
2022-09-10T03:28:38.814Z,13.45
2022-09-10T03:30:38.405Z,13.44
2022-09-10T03:31:37.926Z,13.45
2022-09-10T03:32:38.345Z,13.44
2022-09-10T03:33:38.500Z,13.42
2022-09-10T03:34:37.531Z,13.38
2022-09-10T03:35:37.524Z,13.36
2022-09-10T03:36:37.566Z,13.34
2022-09-10T03:39:37.680Z,13.36
2022-09-10T03:40:37.677Z,13.38
2022-09-10T03:41:37.634Z,13.40
2022-09-10T03:42:38.877Z,13.42
2022-09-10T03:43:37.656Z,13.45
2022-09-10T03:44:37.913Z,13.46
2022-09-10T03:45:37.603Z,13.48
2022-09-10T03:46:38.415Z,13.50
2022-09-10T03:47:37.822Z,13.52
2022-09-10T03:48:39.847Z,13.57
2022-09-10T03:49:37.920Z,13.59
2022-09-10T03:50:39.418Z,13.60
2022-09-10T03:51:37.518Z,13.59
2022-09-10T03:52:37.590Z,13.55
2022-09-10T03:53:38.779Z,13.50
2022-09-10T03:54:37.569Z,13.45
2022-09-10T03:55:37.833Z,13.43
2022-09-10T03:56:37.623Z,13.45
2022-09-10T03:57:39.121Z,13.52
2022-09-10T03:58:37.926Z,13.58
2022-09-10T03:59:39.589Z,13.65
2022-09-10T04:00:37.594Z,13.73
2022-09-10T04:01:37.518Z,13.81
2022-09-10T04:02:37.691Z,13.88
2022-09-10T04:03:37.599Z,13.93
2022-09-10T04:04:39.714Z,13.94
2022-09-10T04:05:40.826Z,13.91
2022-09-10T04:06:41.852Z,13.86
2022-09-10T04:07:38.030Z,13.79
2022-09-10T04:08:39.943Z,13.76
2022-09-10T04:08:42.585Z,13.76
2022-09-10T04:09:37.638Z,13.78
2022-09-10T04:10:37.671Z,13.82
2022-09-10T04:11:37.603Z,13.87
2022-09-10T04:12:38.071Z,13.92
2022-09-10T04:13:37.555Z,13.95
2022-09-10T04:15:38.633Z,13.94
2022-09-10T04:17:37.511Z,13.93
2022-09-10T04:20:38.349Z,13.92
2022-09-10T04:21:37.569Z,13.90
2022-09-10T04:22:37.649Z,13.85
2022-09-10T04:23:38.071Z,13.81
2022-09-10T04:24:38.648Z,13.80
2022-09-10T04:25:32.235Z,13.80
2022-09-10T04:25:34.828Z,13.77
2022-09-10T04:25:36.440Z,13.77
2022-09-10T04:25:57.313Z,13.77
2022-09-10T04:25:59.849Z,13.77
2022-09-10T04:26:37.518Z,13.74
2022-09-10T04:28:38.586Z,13.77
2022-09-10T04:29:48.272Z,13.78
2022-09-10T04:30:38.367Z,13.77
2022-09-10T04:32:41.811Z,13.75
2022-09-10T04:33:37.819Z,13.73
2022-09-10T04:34:07.910Z,13.73
2022-09-10T04:34:10.681Z,13.73
2022-09-10T04:34:37.473Z,13.69
2022-09-10T04:35:33.805Z,13.69
2022-09-10T04:35:35.150Z,13.63
2022-09-10T04:35:36.514Z,13.63
2022-09-10T04:36:38.466Z,13.58
2022-09-10T04:37:43.931Z,13.54
2022-09-10T04:38:41.896Z,13.51
2022-09-10T04:39:37.903Z,13.50
2022-09-10T04:40:38.517Z,13.51
2022-09-10T04:41:37.567Z,13.53
2022-09-10T04:43:38.729Z,13.55
2022-09-10T04:44:37.570Z,13.57
2022-09-10T04:45:39.547Z,13.56
2022-09-10T04:46:37.603Z,13.54
2022-09-10T04:47:38.087Z,13.53
2022-09-10T04:48:37.530Z,13.52
2022-09-10T04:49:37.459Z,13.51
2022-09-10T04:50:54.020Z,13.50
2022-09-10T04:51:37.499Z,13.49
2022-09-10T04:53:37.497Z,13.50
2022-09-10T04:54:38.242Z,13.53
2022-09-10T04:55:40.065Z,13.54
2022-09-10T04:56:37.536Z,13.55
2022-09-10T04:56:51.964Z,13.55
2022-09-10T04:56:53.281Z,13.55
2022-09-10T04:57:42.408Z,13.56
2022-09-10T04:58:39.051Z,13.55
2022-09-10T05:00:00.255Z,13.54
2022-09-10T05:00:39.470Z,13.50
2022-09-10T05:01:37.648Z,13.46
2022-09-10T05:02:37.829Z,13.42
2022-09-10T05:03:37.521Z,13.38
2022-09-10T05:04:43.516Z,13.36
2022-09-10T05:04:45.136Z,13.36
2022-09-10T05:05:43.016Z,13.34
2022-09-10T05:06:37.562Z,13.33
2022-09-10T05:07:39.010Z,13.32
2022-09-10T05:09:37.483Z,13.31
2022-09-10T05:11:37.509Z,13.29
2022-09-10T05:12:39.141Z,13.25
2022-09-10T05:13:37.590Z,13.23
2022-09-10T05:14:38.662Z,13.18
2022-09-10T05:15:40.035Z,13.14
2022-09-10T05:16:38.874Z,13.10
2022-09-10T05:17:37.537Z,13.08
2022-09-10T05:18:37.571Z,13.07
2022-09-10T05:19:37.451Z,13.08
2022-09-10T05:22:40.658Z,13.07
2022-09-10T05:23:37.492Z,13.06
2022-09-10T05:24:37.748Z,13.03
2022-09-10T05:25:37.844Z,13.01
2022-09-10T05:26:37.507Z,12.99
2022-09-10T05:27:37.609Z,12.95
2022-09-10T05:28:37.818Z,12.85
2022-09-10T05:29:37.496Z,12.77
2022-09-10T05:30:37.494Z,12.68
2022-09-10T05:31:37.557Z,12.61
2022-09-10T05:32:40.238Z,12.53
2022-09-10T05:33:40.516Z,12.47
2022-09-10T05:34:39.621Z,12.42
2022-09-10T05:35:37.534Z,12.38
2022-09-10T05:36:37.528Z,12.35
2022-09-10T05:37:37.531Z,12.34
2022-09-10T05:38:40.002Z,12.31
2022-09-10T05:39:37.527Z,12.28
2022-09-10T05:40:37.627Z,12.25
2022-09-10T05:41:37.931Z,12.23
2022-09-10T05:42:37.794Z,12.21
2022-09-10T05:43:37.639Z,12.17
2022-09-10T05:44:37.450Z,12.14
2022-09-10T05:45:37.574Z,12.11
2022-09-10T05:46:38.175Z,12.07
2022-09-10T05:47:38.119Z,12.03
2022-09-10T05:48:41.379Z,11.99
2022-09-10T05:49:37.506Z,11.96
2022-09-10T05:50:38.635Z,11.91
2022-09-10T05:51:37.482Z,11.87
2022-09-10T05:52:37.985Z,11.83
2022-09-10T05:53:38.382Z,11.80
2022-09-10T05:54:37.626Z,11.75
2022-09-10T05:55:37.502Z,11.71
2022-09-10T05:56:37.440Z,11.66
2022-09-10T05:57:37.612Z,11.60
2022-09-10T05:58:37.620Z,11.54
2022-09-10T05:59:37.497Z,11.49
2022-09-10T06:00:37.664Z,11.46
2022-09-10T06:01:38.168Z,11.42
2022-09-10T06:02:38.128Z,11.38
2022-09-10T06:03:38.318Z,11.33
2022-09-10T06:04:37.424Z,11.28
2022-09-10T06:05:37.492Z,11.22
2022-09-10T06:06:37.471Z,11.16
2022-09-10T06:07:37.613Z,11.12
2022-09-10T06:08:37.619Z,11.06
2022-09-10T06:09:37.697Z,11.01
2022-09-10T06:10:37.489Z,10.96
2022-09-10T06:11:37.472Z,10.91
2022-09-10T06:12:38.324Z,10.85
2022-09-10T06:13:42.369Z,10.80
2022-09-10T06:14:37.576Z,10.77
2022-09-10T06:15:39.093Z,10.73
2022-09-10T06:16:37.480Z,10.69
2022-09-10T06:17:38.620Z,10.65
2022-09-10T06:18:37.626Z,10.60
2022-09-10T06:19:37.463Z,10.55
2022-09-10T06:20:37.773Z,10.51
2022-09-10T06:21:37.421Z,10.46
2022-09-10T06:22:37.429Z,10.41
2022-09-10T06:23:37.494Z,10.36
2022-09-10T06:24:37.893Z,10.31
2022-09-10T06:25:37.410Z,10.28
2022-09-10T06:26:37.445Z,10.24
2022-09-10T06:27:37.786Z,10.20
2022-09-10T06:28:39.016Z,10.16
2022-09-10T06:29:37.421Z,10.13
2022-09-10T06:30:37.525Z,10.09
2022-09-10T06:31:37.452Z,10.06
2022-09-10T06:32:39.318Z,10.01
2022-09-10T06:33:37.458Z,9.97
2022-09-10T06:34:37.435Z,9.93
2022-09-10T06:35:37.424Z,9.90
2022-09-10T06:36:37.504Z,9.86
2022-09-10T06:37:37.431Z,9.84
2022-09-10T06:38:37.521Z,9.82
2022-09-10T06:39:37.491Z,9.80
2022-09-10T06:40:38.245Z,9.78
2022-09-10T06:41:37.667Z,9.75
2022-09-10T06:42:38.202Z,9.72
2022-09-10T06:43:38.776Z,9.68
2022-09-10T06:44:37.411Z,9.64
2022-09-10T06:45:41.044Z,9.61
2022-09-10T06:48:32.723Z,9.55
2022-09-10T06:48:45.643Z,9.53
2022-09-10T06:49:37.453Z,9.50
2022-09-10T06:50:37.778Z,9.47
2022-09-10T06:51:38.586Z,9.44
2022-09-10T06:52:37.863Z,9.40
2022-09-10T06:53:38.567Z,9.38
2022-09-10T06:54:37.467Z,9.36
2022-09-10T06:55:37.387Z,9.34
2022-09-10T06:56:37.470Z,9.31
2022-09-10T06:57:37.431Z,9.30
2022-09-10T06:58:37.685Z,9.28
2022-09-10T06:59:37.490Z,9.25
2022-09-10T07:00:39.426Z,9.22
2022-09-10T07:01:38.388Z,9.20
2022-09-10T07:02:37.401Z,9.17
2022-09-10T07:03:38.348Z,9.13
2022-09-10T07:04:37.414Z,9.11
2022-09-10T07:05:37.423Z,9.08
2022-09-10T07:06:39.078Z,9.06
2022-09-10T07:07:37.432Z,9.05
2022-09-10T07:08:39.938Z,9.03
2022-09-10T07:09:37.410Z,9.01
2022-09-10T07:10:37.556Z,9.00
2022-09-10T07:11:41.379Z,8.98
2022-09-10T07:12:37.482Z,8.97
2022-09-10T07:13:38.000Z,8.96
2022-09-10T07:14:37.411Z,8.95
2022-09-10T07:15:37.572Z,8.94
2022-09-10T07:16:41.801Z,8.92
2022-09-10T07:17:37.404Z,8.91
2022-09-10T07:18:37.731Z,8.88
2022-09-10T07:19:38.585Z,8.87
2022-09-10T07:20:37.806Z,8.85
2022-09-10T07:21:38.080Z,8.83
2022-09-10T07:23:39.273Z,8.82
2022-09-10T07:24:37.594Z,8.81
2022-09-10T07:26:37.476Z,8.80
2022-09-10T07:28:38.688Z,8.79
2022-09-10T07:30:37.413Z,8.77
2022-09-10T07:31:38.474Z,8.76
2022-09-10T07:32:37.383Z,8.73
2022-09-10T07:33:37.380Z,8.71
2022-09-10T07:34:37.863Z,8.69
2022-09-10T07:35:38.052Z,8.67
2022-09-10T07:36:37.455Z,8.65
2022-09-10T07:37:39.398Z,8.64
2022-09-10T07:38:38.346Z,8.61
2022-09-10T07:39:38.213Z,8.59
2022-09-10T07:40:37.363Z,8.57
2022-09-10T07:41:37.721Z,8.55
2022-09-10T07:42:38.255Z,8.53
2022-09-10T07:43:39.264Z,8.51
2022-09-10T07:44:37.356Z,8.49
2022-09-10T07:45:37.523Z,8.48
2022-09-10T07:46:38.191Z,8.46
2022-09-10T07:47:37.376Z,8.44
2022-09-10T07:49:37.439Z,8.42
2022-09-10T07:50:37.360Z,8.39
2022-09-10T07:51:37.383Z,8.37
2022-09-10T07:52:37.396Z,8.36
2022-09-10T07:53:37.374Z,8.33
2022-09-10T07:54:37.430Z,8.32
2022-09-10T07:55:37.627Z,8.30
2022-09-10T07:56:38.007Z,8.28
2022-09-10T07:57:39.926Z,8.25
2022-09-10T07:58:38.553Z,8.22
2022-09-10T07:59:37.362Z,8.20
2022-09-10T08:00:37.461Z,8.17
2022-09-10T08:02:37.431Z,8.15
2022-09-10T08:03:37.390Z,8.13
2022-09-10T08:04:37.682Z,8.12
2022-09-10T08:05:39.678Z,8.09
2022-09-10T08:06:37.373Z,8.07
2022-09-10T08:07:38.092Z,8.03
2022-09-10T08:08:40.058Z,8.00
2022-09-10T08:09:37.642Z,7.97
2022-09-10T08:10:37.349Z,7.95
2022-09-10T08:11:37.440Z,7.94
2022-09-10T08:12:37.986Z,7.92
2022-09-10T08:13:38.748Z,7.90
2022-09-10T08:15:41.702Z,7.88
2022-09-10T08:16:41.250Z,7.87
2022-09-10T08:18:37.641Z,7.86
2022-09-10T08:19:37.498Z,7.85
2022-09-10T08:20:38.851Z,7.83
2022-09-10T08:21:37.430Z,7.82
2022-09-10T08:22:37.527Z,7.80
2022-09-10T08:23:39.806Z,7.77
2022-09-10T08:24:37.377Z,7.76
2022-09-10T08:25:38.261Z,7.75
2022-09-10T08:26:37.344Z,7.74
2022-09-10T08:27:37.446Z,7.73
2022-09-10T08:28:38.262Z,7.72
2022-09-10T08:29:37.332Z,7.71
2022-09-10T08:30:37.454Z,7.69
2022-09-10T08:31:37.407Z,7.68
2022-09-10T08:32:37.315Z,7.67
2022-09-10T08:34:37.321Z,7.65
2022-09-10T08:35:38.000Z,7.61
2022-09-10T08:36:37.452Z,7.58
2022-09-10T08:37:38.222Z,7.56
2022-09-10T08:38:41.459Z,7.54
2022-09-10T08:39:37.399Z,7.51
2022-09-10T08:40:43.269Z,7.49
2022-09-10T08:41:44.054Z,7.48
2022-09-10T08:42:46.337Z,7.46
2022-09-10T08:43:49.261Z,7.45
2022-09-10T08:44:50.955Z,7.42
2022-09-10T08:45:58.711Z,7.41
2022-09-10T08:46:42.727Z,7.39
2022-09-10T08:47:46.936Z,7.38
2022-09-10T08:48:41.035Z,7.37
2022-09-10T08:49:40.006Z,7.36
2022-09-10T08:51:47.335Z,7.35
2022-09-10T08:52:42.434Z,7.33
2022-09-10T08:55:45.043Z,7.32
2022-09-10T08:56:37.388Z,7.31
2022-09-10T08:57:45.257Z,7.29
2022-09-10T08:59:44.861Z,7.28
2022-09-10T09:02:56.740Z,7.27
2022-09-10T09:04:41.628Z,7.25
2022-09-10T09:06:44.973Z,7.24
2022-09-10T09:07:39.512Z,7.21
2022-09-10T09:08:48.632Z,7.18
2022-09-10T09:09:37.319Z,7.16
2022-09-10T09:10:45.976Z,7.14
2022-09-10T09:11:51.699Z,7.12
2022-09-10T09:13:51.350Z,7.11
2022-09-10T09:15:41.749Z,7.10
2022-09-10T09:16:53.500Z,7.09
2022-09-10T09:18:49.007Z,7.08
2022-09-10T09:19:42.531Z,7.07
2022-09-10T09:20:50.801Z,7.06
2022-09-10T09:21:52.819Z,7.04
2022-09-10T09:22:42.010Z,7.02
2022-09-10T09:24:12.317Z,6.99
2022-09-10T09:24:53.899Z,6.96
2022-09-10T09:25:49.903Z,6.94
2022-09-10T09:26:38.204Z,6.91
2022-09-10T09:27:42.452Z,6.88
2022-09-10T09:28:49.942Z,6.86
2022-09-10T09:29:46.655Z,6.85
2022-09-10T09:30:49.506Z,6.83
2022-09-10T09:31:43.453Z,6.80
2022-09-10T09:32:42.764Z,6.77
2022-09-10T09:33:38.378Z,6.76
2022-09-10T09:34:44.109Z,6.75
2022-09-10T09:35:53.292Z,6.74
2022-09-10T09:37:38.917Z,6.73
2022-09-10T09:39:46.476Z,6.71
2022-09-10T09:40:46.911Z,6.70
2022-09-10T09:41:52.205Z,6.69
2022-09-10T09:42:50.939Z,6.67
2022-09-10T09:44:46.319Z,6.66
2022-09-10T09:45:39.717Z,6.65
2022-09-10T09:46:37.277Z,6.64
2022-09-10T09:47:37.433Z,6.62
2022-09-10T09:48:42.233Z,6.61
2022-09-10T09:49:37.326Z,6.60
2022-09-10T09:50:42.462Z,6.58
2022-09-10T09:51:37.317Z,6.57
2022-09-10T09:52:38.734Z,6.55
2022-09-10T09:53:37.234Z,6.54
2022-09-10T09:55:13.284Z,6.53
2022-09-10T09:55:42.358Z,6.51
2022-09-10T09:56:42.373Z,6.50
2022-09-10T09:57:37.248Z,6.48
2022-09-10T09:59:37.342Z,6.47
2022-09-10T10:02:38.867Z,6.48
2022-09-10T10:03:48.843Z,6.47
2022-09-10T10:04:42.024Z,6.48
2022-09-10T10:05:37.495Z,6.47
2022-09-10T10:06:47.263Z,6.48
2022-09-10T10:08:41.596Z,6.49
2022-09-10T10:15:42.324Z,6.50
2022-09-10T10:18:37.315Z,6.49
2022-09-10T10:19:40.182Z,6.48
2022-09-10T10:21:38.274Z,6.47
2022-09-10T10:23:38.967Z,6.46
2022-09-10T10:24:37.234Z,6.45
2022-09-10T10:25:41.418Z,6.44
2022-09-10T10:26:38.378Z,6.43
2022-09-10T10:27:42.933Z,6.42
2022-09-10T10:28:37.287Z,6.40
2022-09-10T10:29:38.070Z,6.39
2022-09-10T10:30:37.234Z,6.37
2022-09-10T10:31:41.972Z,6.36
2022-09-10T10:32:49.913Z,6.35
2022-09-10T10:33:39.558Z,6.34
2022-09-10T10:34:54.085Z,6.33
2022-09-10T10:35:53.444Z,6.32
2022-09-10T10:37:48.868Z,6.30
2022-09-10T10:38:40.692Z,6.29
2022-09-10T10:39:55.570Z,6.28
2022-09-10T10:40:43.613Z,6.27
2022-09-10T10:41:47.076Z,6.26
2022-09-10T10:42:44.601Z,6.24
2022-09-10T10:44:55.394Z,6.22
2022-09-10T10:45:42.703Z,6.21
2022-09-10T10:46:50.140Z,6.20
2022-09-10T10:48:51.661Z,6.18
2022-09-10T10:49:53.493Z,6.17
2022-09-10T10:50:43.910Z,6.16
2022-09-10T10:52:51.489Z,6.15
2022-09-10T10:54:54.207Z,6.14
2022-09-10T10:55:42.399Z,6.13
2022-09-10T10:57:44.020Z,6.11
2022-09-10T10:59:55.059Z,6.10
2022-09-10T11:01:42.889Z,6.08
2022-09-10T11:06:44.135Z,6.07
2022-09-10T11:08:42.010Z,6.06
2022-09-10T11:09:41.572Z,6.05
2022-09-10T11:10:42.497Z,6.04
2022-09-10T11:11:49.773Z,6.02
2022-09-10T11:12:47.600Z,6.01
2022-09-10T11:14:45.130Z,5.99
2022-09-10T11:15:46.927Z,5.97
2022-09-10T11:16:44.411Z,5.95
2022-09-10T11:17:46.647Z,5.92
2022-09-10T11:18:44.285Z,5.90
2022-09-10T11:19:56.396Z,5.87
2022-09-10T11:20:43.224Z,5.84
2022-09-10T11:21:44.864Z,5.82
2022-09-10T11:22:45.485Z,5.81
2022-09-10T11:24:42.505Z,5.80
2022-09-10T11:25:45.098Z,5.79
2022-09-10T11:26:51.094Z,5.76
2022-09-10T11:27:43.473Z,5.74
2022-09-10T11:28:44.126Z,5.68
2022-09-10T11:29:41.783Z,5.63
2022-09-10T11:30:41.835Z,5.59
2022-09-10T11:31:43.860Z,5.55
2022-09-10T11:32:43.127Z,5.52
2022-09-10T11:33:50.425Z,5.50
2022-09-10T11:34:43.657Z,5.47
2022-09-10T11:36:47.747Z,5.49
2022-09-10T11:37:51.242Z,5.50
2022-09-10T11:38:53.198Z,5.52
2022-09-10T11:39:42.439Z,5.54
2022-09-10T11:40:54.277Z,5.55
2022-09-10T11:41:42.761Z,5.56
2022-09-10T11:43:49.485Z,5.55
2022-09-10T11:45:47.504Z,5.50
2022-09-10T11:47:43.408Z,5.44
2022-09-10T11:48:46.008Z,5.42
2022-09-10T11:49:48.422Z,5.40
2022-09-10T11:50:45.899Z,5.37
2022-09-10T11:51:39.918Z,5.35
2022-09-10T11:52:37.930Z,5.33
2022-09-10T11:53:37.653Z,5.31
2022-09-10T11:54:38.647Z,5.27
2022-09-10T11:55:49.732Z,5.24
2022-09-10T11:56:53.294Z,5.21
2022-09-10T11:57:50.234Z,5.18
2022-09-10T11:58:49.173Z,5.15
2022-09-10T11:59:45.975Z,5.12
2022-09-10T12:00:49.397Z,5.08
2022-09-10T12:01:46.044Z,5.04
2022-09-10T12:02:55.447Z,5.00
2022-09-10T12:03:49.839Z,4.98
2022-09-10T12:04:55.304Z,4.96
2022-09-10T12:06:45.689Z,4.91
2022-09-10T12:07:45.302Z,4.88
2022-09-10T12:08:45.500Z,4.87
2022-09-10T12:09:53.395Z,4.85
2022-09-10T12:10:48.448Z,4.81
2022-09-10T12:11:51.771Z,4.79
2022-09-10T12:12:44.302Z,4.78
2022-09-10T12:13:40.499Z,4.76
2022-09-10T12:14:41.350Z,4.74
2022-09-10T12:15:38.842Z,4.71
2022-09-10T12:16:43.642Z,4.69
2022-09-10T12:18:43.237Z,4.63
2022-09-10T12:19:46.347Z,4.61
2022-09-10T12:20:48.885Z,4.58
2022-09-10T12:21:44.230Z,4.57
2022-09-10T12:23:40.937Z,4.53
2022-09-10T12:24:39.830Z,4.52
2022-09-10T12:25:37.213Z,4.51
2022-09-10T12:26:45.211Z,4.50
2022-09-10T12:27:56.511Z,4.49
2022-09-10T12:29:41.393Z,4.48
2022-09-10T12:31:56.233Z,4.47
2022-09-10T12:35:48.236Z,4.48
2022-09-10T12:36:46.941Z,4.47
2022-09-10T12:37:37.191Z,4.46
2022-09-10T12:38:55.344Z,4.45
2022-09-10T12:39:37.201Z,4.44
2022-09-10T12:40:49.745Z,4.43
2022-09-10T12:41:46.210Z,4.42
2022-09-10T12:42:37.244Z,4.40
2022-09-10T12:44:46.992Z,4.39
2022-09-10T12:46:44.799Z,4.40
2022-09-10T12:49:53.715Z,4.41
2022-09-10T12:50:46.186Z,4.42
2022-09-10T12:51:52.323Z,4.43
2022-09-10T12:52:43.899Z,4.44
2022-09-10T12:53:45.906Z,4.46
2022-09-10T12:54:55.922Z,4.49
2022-09-10T12:55:51.670Z,4.51
2022-09-10T12:56:55.887Z,4.52
2022-09-10T12:57:50.930Z,4.53
2022-09-10T12:59:45.847Z,4.52
2022-09-10T13:00:42.587Z,4.49
2022-09-10T13:01:44.308Z,4.44
2022-09-10T13:02:46.742Z,4.39
2022-09-10T13:03:37.888Z,4.33
2022-09-10T13:04:38.608Z,4.28
2022-09-10T13:05:45.705Z,4.24
2022-09-10T13:06:41.859Z,4.22
2022-09-10T13:07:41.904Z,4.19
2022-09-10T13:08:42.639Z,4.17
2022-09-10T13:09:40.450Z,4.16
2022-09-10T13:10:38.689Z,4.15
2022-09-10T13:11:37.445Z,4.13
2022-09-10T13:12:42.129Z,4.12
2022-09-10T13:13:39.064Z,4.09
2022-09-10T13:14:40.410Z,4.08
2022-09-10T13:15:39.980Z,4.06
2022-09-10T13:16:40.784Z,4.04
2022-09-10T13:18:38.276Z,4.02
2022-09-10T13:20:37.544Z,4.00
2022-09-10T13:21:45.905Z,3.98
2022-09-10T13:22:55.982Z,3.96
2022-09-10T13:23:48.057Z,3.94
2022-09-10T13:24:39.665Z,3.93
2022-09-10T13:25:42.926Z,3.92
2022-09-10T13:26:50.694Z,3.90
2022-09-10T13:27:40.069Z,3.88
2022-09-10T13:28:46.579Z,3.86
2022-09-10T13:29:43.568Z,3.83
2022-09-10T13:30:37.172Z,3.81
2022-09-10T13:31:43.374Z,3.79
2022-09-10T13:32:52.384Z,3.77
2022-09-10T13:33:53.092Z,3.76
2022-09-10T13:35:47.680Z,3.77
2022-09-10T13:39:56.197Z,3.78
2022-09-10T13:40:56.316Z,3.77
2022-09-10T13:42:53.652Z,3.75
2022-09-10T13:43:51.469Z,3.73
2022-09-10T13:44:55.549Z,3.71
2022-09-10T13:45:41.859Z,3.67
2022-09-10T13:46:43.754Z,3.63
2022-09-10T13:47:39.882Z,3.58
2022-09-10T13:48:51.702Z,3.54
2022-09-10T13:49:49.192Z,3.51
2022-09-10T13:50:49.358Z,3.48
2022-09-10T13:52:38.357Z,3.47
2022-09-10T13:53:43.127Z,3.49
2022-09-10T13:55:38.106Z,3.48
2022-09-10T13:57:42.175Z,3.47
2022-09-10T13:58:40.173Z,3.45
2022-09-10T13:59:38.422Z,3.42
2022-09-10T14:00:49.642Z,3.39
2022-09-10T14:01:54.339Z,3.36
2022-09-10T14:02:45.444Z,3.34
2022-09-10T14:03:42.013Z,3.33
2022-09-10T14:07:37.508Z,3.31
2022-09-10T14:08:42.508Z,3.30
2022-09-10T14:09:41.297Z,3.26
2022-09-10T14:10:53.172Z,3.24
2022-09-10T14:11:42.553Z,3.23
2022-09-10T14:12:37.443Z,3.22
2022-09-10T14:13:48.723Z,3.21
2022-09-10T14:14:42.362Z,3.20
2022-09-10T14:15:40.306Z,3.19
2022-09-10T14:16:42.640Z,3.17
2022-09-10T14:17:43.848Z,3.16
2022-09-10T14:18:43.502Z,3.13
2022-09-10T14:19:42.658Z,3.10
2022-09-10T14:20:37.724Z,3.07
2022-09-10T14:21:37.209Z,3.05
2022-09-10T14:22:39.109Z,3.03
2022-09-10T14:23:40.385Z,3.00
2022-09-10T14:24:49.010Z,2.98
2022-09-10T14:25:39.658Z,2.96
2022-09-10T14:26:37.056Z,2.93
2022-09-10T14:27:40.643Z,2.92
2022-09-10T14:28:46.482Z,2.91
2022-09-10T14:30:37.406Z,2.90
2022-09-10T14:31:38.451Z,2.88
2022-09-10T14:32:37.574Z,2.87
2022-09-10T14:33:39.797Z,2.86
2022-09-10T14:34:37.102Z,2.85
2022-09-10T14:35:39.427Z,2.83
2022-09-10T14:36:37.077Z,2.81
2022-09-10T14:37:38.502Z,2.79
2022-09-10T14:38:40.466Z,2.77
2022-09-10T14:39:44.170Z,2.75
2022-09-10T14:40:38.464Z,2.72
2022-09-10T14:41:37.455Z,2.70
2022-09-10T14:42:37.272Z,2.68
2022-09-10T14:43:40.770Z,2.67
2022-09-10T14:44:42.971Z,2.66
2022-09-10T14:45:46.371Z,2.67
2022-09-10T14:47:37.433Z,2.69